sensor_id;sensor_type;location;lat;lon;timestamp;P1;durP1;ratioP1;P2;durP2;ratioP2
66145;SDS011;52948;60.040;30.320;2023-12-07T00:03:50;42.60;;;15.80;;
66145;SDS011;52948;60.040;30.320;2023-12-07T00:08:53;42.20;;;16.55;;
66145;SDS011;52948;60.040;30.320;2023-12-07T00:13:55;44.15;;;15.75;;
66145;SDS011;52948;60.040;30.320;2023-12-07T00:18:57;40.40;;;14.80;;
66145;SDS011;52948;60.040;30.320;2023-12-07T00:24:00;40.70;;;15.45;;
66145;SDS011;52948;60.040;30.320;2023-12-07T00:29:03;41.67;;;15.48;;
66145;SDS011;52948;60.040;30.320;2023-12-07T00:34:05;39.33;;;15.15;;
66145;SDS011;52948;60.040;30.320;2023-12-07T00:39:07;44.08;;;15.55;;
66145;SDS011;52948;60.040;30.320;2023-12-07T00:44:10;40.88;;;16.10;;
66145;SDS011;52948;60.040;30.320;2023-12-07T00:49:13;52.08;;;17.10;;
66145;SDS011;52948;60.040;30.320;2023-12-07T00:54:15;48.38;;;18.10;;
66145;SDS011;52948;60.040;30.320;2023-12-07T00:59:17;46.63;;;16.33;;
66145;SDS011;52948;60.040;30.320;2023-12-07T01:04:20;48.55;;;16.25;;
66145;SDS011;52948;60.040;30.320;2023-12-07T01:09:22;53.10;;;16.98;;
66145;SDS011;52948;60.040;30.320;2023-12-07T01:14:24;50.70;;;16.27;;
66145;SDS011;52948;60.040;30.320;2023-12-07T01:19:27;41.83;;;16.10;;
66145;SDS011;52948;60.040;30.320;2023-12-07T01:24:29;43.65;;;15.48;;
66145;SDS011;52948;60.040;30.320;2023-12-07T01:29:31;42.92;;;16.08;;
66145;SDS011;52948;60.040;30.320;2023-12-07T01:34:34;43.47;;;14.70;;
66145;SDS011;52948;60.040;30.320;2023-12-07T01:39:36;44.72;;;16.27;;
66145;SDS011;52948;60.040;30.320;2023-12-07T01:44:39;43.22;;;14.80;;
66145;SDS011;52948;60.040;30.320;2023-12-07T01:49:41;59.90;;;18.55;;
66145;SDS011;52948;60.040;30.320;2023-12-07T01:54:44;38.40;;;14.38;;
66145;SDS011;52948;60.040;30.320;2023-12-07T01:59:46;43.30;;;13.35;;
66145;SDS011;52948;60.040;30.320;2023-12-07T02:04:49;37.85;;;13.48;;
66145;SDS011;52948;60.040;30.320;2023-12-07T02:09:51;36.25;;;12.90;;
66145;SDS011;52948;60.040;30.320;2023-12-07T02:14:53;28.35;;;11.88;;
66145;SDS011;52948;60.040;30.320;2023-12-07T02:20:18;33.08;;;11.68;;
66145;SDS011;52948;60.040;30.320;2023-12-07T02:25:32;28.00;;;11.43;;
66145;SDS011;52948;60.040;30.320;2023-12-07T02:30:39;30.17;;;12.30;;
66145;SDS011;52948;60.040;30.320;2023-12-07T02:35:41;26.98;;;12.43;;
66145;SDS011;52948;60.040;30.320;2023-12-07T02:40:44;28.00;;;10.88;;
66145;SDS011;52948;60.040;30.320;2023-12-07T02:45:48;24.95;;;9.50;;
66145;SDS011;52948;60.040;30.320;2023-12-07T02:50:50;24.02;;;9.68;;
66145;SDS011;52948;60.040;30.320;2023-12-07T02:55:52;27.15;;;10.48;;
66145;SDS011;52948;60.040;30.320;2023-12-07T03:00:55;24.23;;;11.07;;
66145;SDS011;52948;60.040;30.320;2023-12-07T03:05:57;22.55;;;10.25;;
66145;SDS011;52948;60.040;30.320;2023-12-07T03:10:59;22.38;;;9.20;;
66145;SDS011;52948;60.040;30.320;2023-12-07T03:16:06;20.55;;;9.73;;
66145;SDS011;52948;60.040;30.320;2023-12-07T03:21:09;22.40;;;10.10;;
66145;SDS011;52948;60.040;30.320;2023-12-07T03:26:11;20.20;;;9.23;;
66145;SDS011;52948;60.040;30.320;2023-12-07T03:31:13;20.25;;;9.30;;
66145;SDS011;52948;60.040;30.320;2023-12-07T03:36:16;21.00;;;9.98;;
66145;SDS011;52948;60.040;30.320;2023-12-07T03:41:18;17.42;;;8.00;;
66145;SDS011;52948;60.040;30.320;2023-12-07T03:46:21;18.83;;;8.30;;
66145;SDS011;52948;60.040;30.320;2023-12-07T03:51:24;9.63;;;4.90;;
66145;SDS011;52948;60.040;30.320;2023-12-07T03:56:27;12.88;;;5.72;;
66145;SDS011;52948;60.040;30.320;2023-12-07T04:01:30;13.57;;;5.90;;
66145;SDS011;52948;60.040;30.320;2023-12-07T04:06:33;13.27;;;5.72;;
66145;SDS011;52948;60.040;30.320;2023-12-07T04:11:35;13.38;;;5.78;;
66145;SDS011;52948;60.040;30.320;2023-12-07T04:16:37;15.40;;;6.20;;
66145;SDS011;52948;60.040;30.320;2023-12-07T04:21:39;13.40;;;5.70;;
66145;SDS011;52948;60.040;30.320;2023-12-07T04:26:42;14.25;;;6.57;;
66145;SDS011;52948;60.040;30.320;2023-12-07T04:31:44;13.18;;;5.80;;
66145;SDS011;52948;60.040;30.320;2023-12-07T04:36:46;13.98;;;5.88;;
66145;SDS011;52948;60.040;30.320;2023-12-07T04:41:49;15.63;;;5.38;;
66145;SDS011;52948;60.040;30.320;2023-12-07T04:46:51;11.50;;;4.95;;
66145;SDS011;52948;60.040;30.320;2023-12-07T04:51:53;11.75;;;5.47;;
66145;SDS011;52948;60.040;30.320;2023-12-07T04:56:56;11.13;;;5.60;;
66145;SDS011;52948;60.040;30.320;2023-12-07T05:01:58;11.27;;;5.75;;
66145;SDS011;52948;60.040;30.320;2023-12-07T05:07:00;13.57;;;5.40;;
66145;SDS011;52948;60.040;30.320;2023-12-07T05:12:06;9.95;;;4.90;;
66145;SDS011;52948;60.040;30.320;2023-12-07T05:17:09;10.38;;;4.97;;
66145;SDS011;52948;60.040;30.320;2023-12-07T05:22:11;10.63;;;5.05;;
66145;SDS011;52948;60.040;30.320;2023-12-07T05:27:14;9.80;;;4.78;;
66145;SDS011;52948;60.040;30.320;2023-12-07T05:32:16;13.27;;;5.95;;
66145;SDS011;52948;60.040;30.320;2023-12-07T05:37:19;13.45;;;6.40;;
66145;SDS011;52948;60.040;30.320;2023-12-07T05:42:22;12.82;;;5.57;;
66145;SDS011;52948;60.040;30.320;2023-12-07T05:47:24;9.10;;;4.28;;
66145;SDS011;52948;60.040;30.320;2023-12-07T05:52:27;17.60;;;4.57;;
66145;SDS011;52948;60.040;30.320;2023-12-07T05:57:29;9.82;;;4.63;;
66145;SDS011;52948;60.040;30.320;2023-12-07T06:02:33;10.52;;;5.53;;
66145;SDS011;52948;60.040;30.320;2023-12-07T06:07:35;9.02;;;5.13;;
66145;SDS011;52948;60.040;30.320;2023-12-07T06:12:37;10.07;;;4.82;;
66145;SDS011;52948;60.040;30.320;2023-12-07T06:17:40;8.93;;;5.05;;
66145;SDS011;52948;60.040;30.320;2023-12-07T06:22:42;16.40;;;6.13;;
66145;SDS011;52948;60.040;30.320;2023-12-07T06:27:44;11.75;;;5.75;;
66145;SDS011;52948;60.040;30.320;2023-12-07T06:32:47;19.63;;;6.53;;
66145;SDS011;52948;60.040;30.320;2023-12-07T06:37:49;17.13;;;7.30;;
66145;SDS011;52948;60.040;30.320;2023-12-07T06:42:52;7.07;;;4.32;;
66145;SDS011;52948;60.040;30.320;2023-12-07T06:47:54;17.98;;;7.38;;
66145;SDS011;52948;60.040;30.320;2023-12-07T06:52:56;12.30;;;6.25;;
66145;SDS011;52948;60.040;30.320;2023-12-07T06:57:59;15.30;;;6.43;;
66145;SDS011;52948;60.040;30.320;2023-12-07T07:03:02;13.63;;;5.82;;
66145;SDS011;52948;60.040;30.320;2023-12-07T07:08:04;12.38;;;6.50;;
66145;SDS011;52948;60.040;30.320;2023-12-07T07:13:08;14.68;;;7.15;;
66145;SDS011;52948;60.040;30.320;2023-12-07T07:18:10;16.38;;;6.68;;
66145;SDS011;52948;60.040;30.320;2023-12-07T07:23:13;13.02;;;6.72;;
66145;SDS011;52948;60.040;30.320;2023-12-07T07:28:15;15.90;;;6.90;;
66145;SDS011;52948;60.040;30.320;2023-12-07T07:33:17;15.40;;;7.25;;
66145;SDS011;52948;60.040;30.320;2023-12-07T07:38:20;17.13;;;7.05;;
66145;SDS011;52948;60.040;30.320;2023-12-07T07:43:22;15.60;;;6.32;;
66145;SDS011;52948;60.040;30.320;2023-12-07T07:48:25;17.75;;;8.27;;
66145;SDS011;52948;60.040;30.320;2023-12-07T07:53:27;18.23;;;7.97;;
66145;SDS011;52948;60.040;30.320;2023-12-07T07:58:30;21.05;;;8.50;;
66145;SDS011;52948;60.040;30.320;2023-12-07T08:03:33;19.45;;;7.78;;
66145;SDS011;52948;60.040;30.320;2023-12-07T08:08:35;17.42;;;7.10;;
66145;SDS011;52948;60.040;30.320;2023-12-07T08:13:38;19.17;;;6.47;;
66145;SDS011;52948;60.040;30.320;2023-12-07T08:18:40;18.42;;;7.72;;
66145;SDS011;52948;60.040;30.320;2023-12-07T08:23:43;16.88;;;7.38;;
66145;SDS011;52948;60.040;30.320;2023-12-07T08:28:45;9.27;;;5.32;;
66145;SDS011;52948;60.040;30.320;2023-12-07T08:33:52;18.95;;;8.00;;
66145;SDS011;52948;60.040;30.320;2023-12-07T08:38:55;15.63;;;6.22;;
66145;SDS011;52948;60.040;30.320;2023-12-07T08:43:57;24.40;;;8.00;;
66145;SDS011;52948;60.040;30.320;2023-12-07T08:49:01;20.98;;;8.13;;
66145;SDS011;52948;60.040;30.320;2023-12-07T08:54:04;17.50;;;6.95;;
66145;SDS011;52948;60.040;30.320;2023-12-07T08:59:07;12.38;;;5.72;;
66145;SDS011;52948;60.040;30.320;2023-12-07T09:04:09;21.52;;;8.57;;
66145;SDS011;52948;60.040;30.320;2023-12-07T09:09:12;14.77;;;7.45;;
66145;SDS011;52948;60.040;30.320;2023-12-07T09:14:14;16.83;;;8.05;;
66145;SDS011;52948;60.040;30.320;2023-12-07T09:19:16;17.10;;;7.60;;
66145;SDS011;52948;60.040;30.320;2023-12-07T09:24:19;16.48;;;8.55;;
66145;SDS011;52948;60.040;30.320;2023-12-07T09:29:21;12.52;;;6.63;;
66145;SDS011;52948;60.040;30.320;2023-12-07T09:34:24;16.45;;;7.32;;
66145;SDS011;52948;60.040;30.320;2023-12-07T09:39:27;13.93;;;6.05;;
66145;SDS011;52948;60.040;30.320;2023-12-07T09:44:29;16.08;;;7.97;;
66145;SDS011;52948;60.040;30.320;2023-12-07T09:49:31;20.85;;;8.50;;
66145;SDS011;52948;60.040;30.320;2023-12-07T09:54:34;17.27;;;8.80;;
66145;SDS011;52948;60.040;30.320;2023-12-07T09:59:40;17.88;;;8.32;;
66145;SDS011;52948;60.040;30.320;2023-12-07T10:04:42;12.63;;;6.35;;
66145;SDS011;52948;60.040;30.320;2023-12-07T10:09:45;12.10;;;5.75;;
66145;SDS011;52948;60.040;30.320;2023-12-07T10:14:47;17.58;;;7.63;;
66145;SDS011;52948;60.040;30.320;2023-12-07T10:20:08;14.70;;;6.65;;
66145;SDS011;52948;60.040;30.320;2023-12-07T10:25:10;9.55;;;5.15;;
66145;SDS011;52948;60.040;30.320;2023-12-07T10:30:14;14.05;;;6.30;;
66145;SDS011;52948;60.040;30.320;2023-12-07T10:35:17;12.88;;;6.97;;
66145;SDS011;52948;60.040;30.320;2023-12-07T10:40:20;10.70;;;6.30;;
66145;SDS011;52948;60.040;30.320;2023-12-07T10:45:24;15.63;;;6.60;;
66145;SDS011;52948;60.040;30.320;2023-12-07T10:50:27;14.25;;;5.90;;
66145;SDS011;52948;60.040;30.320;2023-12-07T10:55:34;19.65;;;5.60;;
66145;SDS011;52948;60.040;30.320;2023-12-07T11:00:43;15.98;;;7.55;;
66145;SDS011;52948;60.040;30.320;2023-12-07T11:05:49;17.55;;;6.53;;
66145;SDS011;52948;60.040;30.320;2023-12-07T11:16:31;14.00;;;6.47;;
66145;SDS011;52948;60.040;30.320;2023-12-07T11:21:37;14.52;;;7.05;;
66145;SDS011;52948;60.040;30.320;2023-12-07T11:26:39;14.20;;;5.95;;
66145;SDS011;52948;60.040;30.320;2023-12-07T11:31:44;14.98;;;6.93;;
66145;SDS011;52948;60.040;30.320;2023-12-07T11:36:47;16.08;;;7.00;;
66145;SDS011;52948;60.040;30.320;2023-12-07T11:41:50;11.00;;;6.65;;
66145;SDS011;52948;60.040;30.320;2023-12-07T11:46:53;8.18;;;5.03;;
66145;SDS011;52948;60.040;30.320;2023-12-07T11:51:55;12.32;;;6.53;;
66145;SDS011;52948;60.040;30.320;2023-12-07T11:56:58;14.27;;;7.28;;
66145;SDS011;52948;60.040;30.320;2023-12-07T12:02:02;12.27;;;6.50;;
66145;SDS011;52948;60.040;30.320;2023-12-07T12:07:04;13.80;;;6.20;;
66145;SDS011;52948;60.040;30.320;2023-12-07T12:12:07;12.32;;;6.72;;
66145;SDS011;52948;60.040;30.320;2023-12-07T12:17:09;10.32;;;6.05;;
66145;SDS011;52948;60.040;30.320;2023-12-07T12:22:12;14.00;;;6.32;;
66145;SDS011;52948;60.040;30.320;2023-12-07T12:27:15;6.03;;;2.75;;
66145;SDS011;52948;60.040;30.320;2023-12-07T12:32:18;12.90;;;5.43;;
66145;SDS011;52948;60.040;30.320;2023-12-07T12:37:20;11.43;;;5.97;;
66145;SDS011;52948;60.040;30.320;2023-12-07T12:42:23;10.98;;;6.10;;
66145;SDS011;52948;60.040;30.320;2023-12-07T12:47:26;11.30;;;6.43;;
66145;SDS011;52948;60.040;30.320;2023-12-07T12:52:28;12.60;;;6.78;;
66145;SDS011;52948;60.040;30.320;2023-12-07T12:57:32;12.70;;;5.68;;
66145;SDS011;52948;60.040;30.320;2023-12-07T13:02:38;9.23;;;4.90;;
66145;SDS011;52948;60.040;30.320;2023-12-07T13:07:40;10.23;;;5.45;;
66145;SDS011;52948;60.040;30.320;2023-12-07T13:12:42;7.90;;;4.93;;
66145;SDS011;52948;60.040;30.320;2023-12-07T13:17:44;11.32;;;3.70;;
66145;SDS011;52948;60.040;30.320;2023-12-07T13:22:47;9.40;;;4.57;;
66145;SDS011;52948;60.040;30.320;2023-12-07T13:27:49;6.05;;;5.00;;
66145;SDS011;52948;60.040;30.320;2023-12-07T13:32:51;9.32;;;4.35;;
66145;SDS011;52948;60.040;30.320;2023-12-07T13:37:54;11.98;;;5.70;;
66145;SDS011;52948;60.040;30.320;2023-12-07T13:42:56;11.18;;;5.72;;
66145;SDS011;52948;60.040;30.320;2023-12-07T13:47:58;16.23;;;5.68;;
66145;SDS011;52948;60.040;30.320;2023-12-07T13:53:00;16.45;;;6.63;;
66145;SDS011;52948;60.040;30.320;2023-12-07T13:58:03;9.05;;;4.63;;
66145;SDS011;52948;60.040;30.320;2023-12-07T14:03:06;11.57;;;6.38;;
66145;SDS011;52948;60.040;30.320;2023-12-07T14:08:08;7.47;;;5.45;;
66145;SDS011;52948;60.040;30.320;2023-12-07T14:13:11;12.23;;;5.90;;
66145;SDS011;52948;60.040;30.320;2023-12-07T14:18:13;11.10;;;5.75;;
66145;SDS011;52948;60.040;30.320;2023-12-07T14:23:15;8.52;;;4.63;;
66145;SDS011;52948;60.040;30.320;2023-12-07T14:28:18;8.15;;;4.55;;
66145;SDS011;52948;60.040;30.320;2023-12-07T14:33:21;14.13;;;6.82;;
66145;SDS011;52948;60.040;30.320;2023-12-07T14:38:29;13.57;;;7.57;;
66145;SDS011;52948;60.040;30.320;2023-12-07T14:43:32;12.98;;;5.50;;
66145;SDS011;52948;60.040;30.320;2023-12-07T14:48:34;10.57;;;5.55;;
66145;SDS011;52948;60.040;30.320;2023-12-07T14:53:39;8.10;;;4.55;;
66145;SDS011;52948;60.040;30.320;2023-12-07T14:58:41;14.60;;;6.45;;
66145;SDS011;52948;60.040;30.320;2023-12-07T15:03:43;16.10;;;6.10;;
66145;SDS011;52948;60.040;30.320;2023-12-07T15:08:47;10.85;;;5.90;;
66145;SDS011;52948;60.040;30.320;2023-12-07T15:13:49;10.52;;;5.78;;
66145;SDS011;52948;60.040;30.320;2023-12-07T15:18:53;14.85;;;6.82;;
66145;SDS011;52948;60.040;30.320;2023-12-07T15:23:55;8.30;;;5.65;;
66145;SDS011;52948;60.040;30.320;2023-12-07T15:28:58;14.05;;;7.15;;
66145;SDS011;52948;60.040;30.320;2023-12-07T15:34:00;5.63;;;4.20;;
66145;SDS011;52948;60.040;30.320;2023-12-07T15:39:03;9.68;;;5.32;;
66145;SDS011;52948;60.040;30.320;2023-12-07T15:44:05;12.40;;;6.38;;
66145;SDS011;52948;60.040;30.320;2023-12-07T15:49:07;12.02;;;6.40;;
66145;SDS011;52948;60.040;30.320;2023-12-07T15:54:09;15.23;;;7.07;;
66145;SDS011;52948;60.040;30.320;2023-12-07T15:59:12;8.52;;;4.40;;
66145;SDS011;52948;60.040;30.320;2023-12-07T16:04:15;14.10;;;6.43;;
66145;SDS011;52948;60.040;30.320;2023-12-07T16:09:20;8.68;;;4.00;;
66145;SDS011;52948;60.040;30.320;2023-12-07T16:14:22;6.90;;;3.67;;
66145;SDS011;52948;60.040;30.320;2023-12-07T16:19:29;6.40;;;1.63;;
66145;SDS011;52948;60.040;30.320;2023-12-07T16:24:31;10.85;;;4.40;;
66145;SDS011;52948;60.040;30.320;2023-12-07T16:29:34;13.68;;;5.63;;
66145;SDS011;52948;60.040;30.320;2023-12-07T16:34:37;9.32;;;4.13;;
66145;SDS011;52948;60.040;30.320;2023-12-07T16:39:40;9.93;;;5.88;;
66145;SDS011;52948;60.040;30.320;2023-12-07T16:44:44;8.80;;;4.65;;
66145;SDS011;52948;60.040;30.320;2023-12-07T16:49:46;7.03;;;3.63;;
66145;SDS011;52948;60.040;30.320;2023-12-07T16:54:48;12.60;;;5.60;;
66145;SDS011;52948;60.040;30.320;2023-12-07T16:59:51;8.65;;;4.22;;
66145;SDS011;52948;60.040;30.320;2023-12-07T17:04:53;9.75;;;5.97;;
66145;SDS011;52948;60.040;30.320;2023-12-07T17:09:56;12.20;;;5.20;;
66145;SDS011;52948;60.040;30.320;2023-12-07T17:14:59;11.80;;;4.95;;
66145;SDS011;52948;60.040;30.320;2023-12-07T17:20:02;6.15;;;3.53;;
66145;SDS011;52948;60.040;30.320;2023-12-07T17:25:05;4.35;;;2.85;;
66145;SDS011;52948;60.040;30.320;2023-12-07T17:30:08;5.45;;;3.72;;
66145;SDS011;52948;60.040;30.320;2023-12-07T17:35:11;3.47;;;2.75;;
66145;SDS011;52948;60.040;30.320;2023-12-07T17:40:13;10.40;;;4.25;;
66145;SDS011;52948;60.040;30.320;2023-12-07T17:45:16;6.05;;;3.88;;
66145;SDS011;52948;60.040;30.320;2023-12-07T17:50:19;12.93;;;5.22;;
66145;SDS011;52948;60.040;30.320;2023-12-07T17:55:21;10.57;;;5.43;;
66145;SDS011;52948;60.040;30.320;2023-12-07T18:00:24;17.17;;;5.35;;
66145;SDS011;52948;60.040;30.320;2023-12-07T18:05:27;14.27;;;5.80;;
66145;SDS011;52948;60.040;30.320;2023-12-07T18:10:30;8.88;;;4.30;;
66145;SDS011;52948;60.040;30.320;2023-12-07T18:15:33;10.30;;;4.65;;
66145;SDS011;52948;60.040;30.320;2023-12-07T18:20:35;18.05;;;9.27;;
66145;SDS011;52948;60.040;30.320;2023-12-07T18:25:38;17.55;;;9.63;;
66145;SDS011;52948;60.040;30.320;2023-12-07T18:30:40;15.30;;;8.13;;
66145;SDS011;52948;60.040;30.320;2023-12-07T18:35:45;18.92;;;9.70;;
66145;SDS011;52948;60.040;30.320;2023-12-07T18:40:47;17.27;;;9.30;;
66145;SDS011;52948;60.040;30.320;2023-12-07T18:45:50;15.93;;;9.18;;
66145;SDS011;52948;60.040;30.320;2023-12-07T18:50:58;19.17;;;9.77;;
66145;SDS011;52948;60.040;30.320;2023-12-07T18:56:04;19.92;;;10.35;;
66145;SDS011;52948;60.040;30.320;2023-12-07T19:01:07;16.95;;;9.50;;
66145;SDS011;52948;60.040;30.320;2023-12-07T19:06:10;19.02;;;9.55;;
66145;SDS011;52948;60.040;30.320;2023-12-07T19:11:15;18.65;;;9.48;;
66145;SDS011;52948;60.040;30.320;2023-12-07T19:16:18;19.20;;;10.57;;
66145;SDS011;52948;60.040;30.320;2023-12-07T19:21:21;19.20;;;9.98;;
66145;SDS011;52948;60.040;30.320;2023-12-07T19:26:24;19.58;;;9.93;;
66145;SDS011;52948;60.040;30.320;2023-12-07T19:31:26;18.80;;;11.00;;
66145;SDS011;52948;60.040;30.320;2023-12-07T19:36:29;17.92;;;10.02;;
66145;SDS011;52948;60.040;30.320;2023-12-07T19:41:31;21.55;;;11.38;;
66145;SDS011;52948;60.040;30.320;2023-12-07T19:46:35;18.20;;;9.65;;
66145;SDS011;52948;60.040;30.320;2023-12-07T19:51:37;18.60;;;9.80;;
66145;SDS011;52948;60.040;30.320;2023-12-07T19:56:40;20.88;;;10.18;;
66145;SDS011;52948;60.040;30.320;2023-12-07T20:01:43;21.85;;;10.90;;
66145;SDS011;52948;60.040;30.320;2023-12-07T20:06:47;19.10;;;10.45;;
66145;SDS011;52948;60.040;30.320;2023-12-07T20:11:49;18.50;;;10.40;;
66145;SDS011;52948;60.040;30.320;2023-12-07T20:16:52;20.88;;;10.63;;
66145;SDS011;52948;60.040;30.320;2023-12-07T20:21:56;18.83;;;9.43;;
66145;SDS011;52948;60.040;30.320;2023-12-07T20:26:59;18.75;;;10.88;;
66145;SDS011;52948;60.040;30.320;2023-12-07T20:32:02;19.05;;;9.52;;
66145;SDS011;52948;60.040;30.320;2023-12-07T20:37:04;20.00;;;9.75;;
66145;SDS011;52948;60.040;30.320;2023-12-07T20:42:07;16.10;;;9.43;;
66145;SDS011;52948;60.040;30.320;2023-12-07T20:47:09;16.00;;;8.68;;
66145;SDS011;52948;60.040;30.320;2023-12-07T20:52:11;18.13;;;8.95;;
66145;SDS011;52948;60.040;30.320;2023-12-07T20:57:13;17.65;;;10.68;;
66145;SDS011;52948;60.040;30.320;2023-12-07T21:02:16;17.77;;;8.90;;
66145;SDS011;52948;60.040;30.320;2023-12-07T21:07:18;17.35;;;10.05;;
66145;SDS011;52948;60.040;30.320;2023-12-07T21:12:20;18.83;;;9.20;;
66145;SDS011;52948;60.040;30.320;2023-12-07T21:17:23;16.08;;;9.73;;
66145;SDS011;52948;60.040;30.320;2023-12-07T21:22:26;16.52;;;9.38;;
66145;SDS011;52948;60.040;30.320;2023-12-07T21:27:28;10.05;;;3.83;;
66145;SDS011;52948;60.040;30.320;2023-12-07T21:32:31;14.20;;;6.60;;
66145;SDS011;52948;60.040;30.320;2023-12-07T21:37:33;15.27;;;7.68;;
66145;SDS011;52948;60.040;30.320;2023-12-07T21:42:36;15.00;;;7.72;;
66145;SDS011;52948;60.040;30.320;2023-12-07T21:47:39;11.93;;;6.40;;
66145;SDS011;52948;60.040;30.320;2023-12-07T21:52:41;12.70;;;5.82;;
66145;SDS011;52948;60.040;30.320;2023-12-07T21:57:44;13.05;;;6.97;;
66145;SDS011;52948;60.040;30.320;2023-12-07T22:02:46;13.63;;;7.15;;
66145;SDS011;52948;60.040;30.320;2023-12-07T22:07:49;14.70;;;7.35;;
66145;SDS011;52948;60.040;30.320;2023-12-07T22:12:52;16.55;;;8.55;;
66145;SDS011;52948;60.040;30.320;2023-12-07T22:17:54;15.98;;;7.65;;
66145;SDS011;52948;60.040;30.320;2023-12-07T22:22:57;14.68;;;7.20;;
66145;SDS011;52948;60.040;30.320;2023-12-07T22:27:59;13.43;;;7.97;;
66145;SDS011;52948;60.040;30.320;2023-12-07T22:33:01;13.18;;;6.95;;
66145;SDS011;52948;60.040;30.320;2023-12-07T22:38:04;14.98;;;7.05;;
66145;SDS011;52948;60.040;30.320;2023-12-07T22:43:06;13.77;;;7.43;;
66145;SDS011;52948;60.040;30.320;2023-12-07T22:48:09;13.98;;;8.40;;
66145;SDS011;52948;60.040;30.320;2023-12-07T22:53:12;13.57;;;7.20;;
66145;SDS011;52948;60.040;30.320;2023-12-07T22:58:15;14.13;;;7.82;;
66145;SDS011;52948;60.040;30.320;2023-12-07T23:03:18;13.85;;;7.00;;
66145;SDS011;52948;60.040;30.320;2023-12-07T23:08:20;12.30;;;6.63;;
66145;SDS011;52948;60.040;30.320;2023-12-07T23:13:23;13.30;;;7.20;;
66145;SDS011;52948;60.040;30.320;2023-12-07T23:18:25;11.75;;;6.47;;
66145;SDS011;52948;60.040;30.320;2023-12-07T23:23:27;13.07;;;6.35;;
66145;SDS011;52948;60.040;30.320;2023-12-07T23:28:32;13.32;;;6.95;;
66145;SDS011;52948;60.040;30.320;2023-12-07T23:33:35;14.10;;;6.40;;
66145;SDS011;52948;60.040;30.320;2023-12-07T23:38:37;11.95;;;5.75;;
66145;SDS011;52948;60.040;30.320;2023-12-07T23:43:39;14.50;;;6.57;;
66145;SDS011;52948;60.040;30.320;2023-12-07T23:48:42;13.68;;;5.75;;
66145;SDS011;52948;60.040;30.320;2023-12-07T23:53:44;11.23;;;5.70;;
66145;SDS011;52948;60.040;30.320;2023-12-07T23:58:46;13.38;;;6.05;;
